createdAt,value
2023-05-01T00:00:32.284Z,1.97
2023-05-01T00:01:06.331Z,1.90
2023-05-01T00:01:38.774Z,1.90
2023-05-01T00:02:13.778Z,2.20
2023-05-01T00:02:46.194Z,1.80
2023-05-01T00:03:19.429Z,1.50
2023-05-01T00:03:57.258Z,1.80
2023-05-01T00:04:29.974Z,1.70
2023-05-01T00:05:02.424Z,1.80
2023-05-01T00:05:37.872Z,2.10
2023-05-01T00:06:11.006Z,1.80
2023-05-01T00:06:43.463Z,1.87
2023-05-01T00:07:18.554Z,1.87
2023-05-01T00:07:50.960Z,1.90
2023-05-01T00:08:23.293Z,1.90
2023-05-01T00:08:58.215Z,1.97
2023-05-01T00:09:30.568Z,2.00
2023-05-01T00:10:03.087Z,2.13
2023-05-01T00:10:38.628Z,1.70
2023-05-01T00:11:12.723Z,1.60
2023-05-01T00:11:46.218Z,1.80
2023-05-01T00:12:21.266Z,2.10
2023-05-01T00:12:53.615Z,1.73
2023-05-01T00:13:26.737Z,1.70
2023-05-01T00:14:01.831Z,1.80
2023-05-01T00:14:34.206Z,1.80
2023-05-01T00:15:08.125Z,1.77
2023-05-01T00:15:45.025Z,1.70
2023-05-01T00:16:17.790Z,1.90
2023-05-01T00:16:52.904Z,1.70
2023-05-01T00:17:25.470Z,1.70
2023-05-01T00:17:57.946Z,1.50
2023-05-01T00:18:33.535Z,1.83
2023-05-01T00:19:08.483Z,1.73
2023-05-01T00:19:41.132Z,1.97
2023-05-01T00:20:17.071Z,2.00
2023-05-01T00:20:49.435Z,1.70
2023-05-01T00:21:21.760Z,1.70
2023-05-01T00:21:56.758Z,1.83
2023-05-01T00:22:29.270Z,1.60
2023-05-01T00:23:01.660Z,1.70
2023-05-01T00:23:36.641Z,1.60
2023-05-01T00:24:08.992Z,1.77
2023-05-01T00:24:41.311Z,1.80
2023-05-01T00:25:16.254Z,1.77
2023-05-01T00:25:49.704Z,1.83
2023-05-01T00:26:22.086Z,1.80
2023-05-01T00:26:57.870Z,1.77
2023-05-01T00:27:30.220Z,1.93
2023-05-01T00:28:03.407Z,1.73
2023-05-01T00:28:38.355Z,1.77
2023-05-01T00:29:10.773Z,1.70
2023-05-01T00:29:43.217Z,1.70
2023-05-01T00:30:18.417Z,1.60
2023-05-01T00:30:51.007Z,1.53
2023-05-01T00:31:25.005Z,1.60
2023-05-01T00:32:00.690Z,1.50
2023-05-01T00:32:33.304Z,1.90
2023-05-01T00:33:05.977Z,1.90
2023-05-01T00:33:40.989Z,1.63
2023-05-01T00:34:15.916Z,1.70
2023-05-01T00:34:48.670Z,1.67
2023-05-01T00:35:23.672Z,1.60
2023-05-01T00:35:56.228Z,1.77
2023-05-01T00:36:28.602Z,1.60
2023-05-01T00:37:03.798Z,1.33
2023-05-01T00:37:36.129Z,2.00
2023-05-01T00:38:08.474Z,1.50
2023-05-01T00:38:43.476Z,2.00
2023-05-01T00:39:15.920Z,1.93
2023-05-01T00:39:48.300Z,1.70
2023-05-01T00:40:23.265Z,1.80
2023-05-01T00:40:55.682Z,1.53
2023-05-01T00:41:28.058Z,1.60
2023-05-01T00:42:03.069Z,1.80
2023-05-01T00:42:36.219Z,1.70
2023-05-01T00:43:08.578Z,1.50
2023-05-01T00:43:43.539Z,1.50
2023-05-01T00:44:16.916Z,1.50
2023-05-01T00:44:49.395Z,1.60
2023-05-01T00:45:24.347Z,1.40
2023-05-01T00:45:56.798Z,1.70
2023-05-01T00:46:30.401Z,1.90
2023-05-01T00:47:05.467Z,1.83
2023-05-01T00:47:38.236Z,1.80
2023-05-01T00:48:11.025Z,1.77
2023-05-01T00:48:46.201Z,1.67
2023-05-01T00:49:21.347Z,1.80
2023-05-01T00:49:54.658Z,1.90
2023-05-01T00:50:30.171Z,1.80
2023-05-01T00:51:04.161Z,1.60
2023-05-01T00:51:36.909Z,1.83
2023-05-01T00:52:12.058Z,1.60
2023-05-01T00:52:44.444Z,1.77
2023-05-01T00:53:17.058Z,1.37
2023-05-01T00:53:52.219Z,1.87
2023-05-01T00:54:25.481Z,1.77
2023-05-01T00:55:00.907Z,2.10
2023-05-01T00:55:33.739Z,2.07
2023-05-01T00:56:07.359Z,1.90
2023-05-01T00:56:43.469Z,1.93
2023-05-01T00:57:16.228Z,1.73
2023-05-01T00:57:48.631Z,2.10
2023-05-01T00:58:23.588Z,1.63
2023-05-01T00:58:57.037Z,1.80
2023-05-01T00:59:29.827Z,2.00
2023-05-01T01:00:05.638Z,1.60
2023-05-01T01:00:38.251Z,1.90
2023-05-01T01:01:10.717Z,1.70
2023-05-01T01:01:45.774Z,1.50
2023-05-01T01:02:18.219Z,1.77
2023-05-01T01:02:50.663Z,1.87
2023-05-01T01:03:25.746Z,1.80
2023-05-01T01:03:58.166Z,2.20
2023-05-01T01:04:33.720Z,1.70
2023-05-01T01:05:09.291Z,1.40
2023-05-01T01:05:45.704Z,1.80
2023-05-01T01:06:24.275Z,2.00
2023-05-01T01:07:04.016Z,1.93
2023-05-01T01:07:42.347Z,1.90
2023-05-01T01:08:20.643Z,1.80
2023-05-01T01:09:07.969Z,1.77
2023-05-01T01:09:48.082Z,1.90
2023-05-01T01:10:28.912Z,2.30
2023-05-01T01:11:09.500Z,2.33
2023-05-01T01:11:48.826Z,1.53
2023-05-01T01:12:25.828Z,1.73
2023-05-01T01:13:07.648Z,1.53
2023-05-01T01:13:46.142Z,1.70
2023-05-01T01:14:20.930Z,1.60
2023-05-01T01:15:02.422Z,1.90
2023-05-01T01:15:37.302Z,1.63
2023-05-01T01:16:14.157Z,1.47
2023-05-01T01:16:54.795Z,1.63
2023-05-01T01:17:32.780Z,1.93
2023-05-01T01:18:10.460Z,1.90
2023-05-01T01:18:50.722Z,1.97
2023-05-01T01:19:43.627Z,1.70
2023-05-01T01:20:29.465Z,1.90
2023-05-01T01:21:08.552Z,1.83
2023-05-01T01:21:43.642Z,2.07
2023-05-01T01:22:19.652Z,2.00
2023-05-01T01:22:58.651Z,1.97
2023-05-01T01:23:42.695Z,1.90
2023-05-01T01:24:48.750Z,1.73
2023-05-01T01:25:51.159Z,1.90
2023-05-01T01:26:30.572Z,2.10
2023-05-01T01:27:26.783Z,2.00
2023-05-01T01:28:11.923Z,2.00
2023-05-01T01:29:34.329Z,2.13
2023-05-01T01:30:23.983Z,2.10
2023-05-01T01:31:12.797Z,1.87
2023-05-01T01:31:58.209Z,1.90
2023-05-01T01:32:46.835Z,1.93
2023-05-01T01:33:50.186Z,2.20
2023-05-01T01:34:28.297Z,2.07
2023-05-01T01:35:04.600Z,2.30
2023-05-01T01:35:41.434Z,2.43
2023-05-01T01:36:19.608Z,2.07
2023-05-01T01:37:01.935Z,1.60
2023-05-01T01:37:41.849Z,1.97
2023-05-01T01:38:18.019Z,1.93
2023-05-01T01:39:07.950Z,2.00
2023-05-01T01:39:46.583Z,1.90
2023-05-01T01:40:20.948Z,2.10
2023-05-01T01:41:00.824Z,1.87
2023-05-01T01:41:34.724Z,2.03
2023-05-01T01:42:09.971Z,1.70
2023-05-01T01:42:47.977Z,1.80
2023-05-01T01:43:21.170Z,1.90
2023-05-01T01:43:59.105Z,1.87
2023-05-01T01:44:39.169Z,1.90
2023-05-01T01:45:17.865Z,2.10
2023-05-01T01:45:54.305Z,1.73
2023-05-01T01:46:30.074Z,2.17
2023-05-01T01:47:06.704Z,1.83
2023-05-01T01:47:44.575Z,1.70
2023-05-01T01:48:19.470Z,2.10
2023-05-01T01:48:53.496Z,2.07
2023-05-01T01:49:32.119Z,2.00
2023-05-01T01:50:08.455Z,1.97
2023-05-01T01:50:42.094Z,2.00
2023-05-01T01:51:20.203Z,1.87
2023-05-01T01:51:53.648Z,2.00
2023-05-01T01:52:29.840Z,2.00
2023-05-01T01:53:03.484Z,1.90
2023-05-01T01:53:37.849Z,1.60
2023-05-01T01:54:14.776Z,2.00
2023-05-01T01:54:51.291Z,1.70
2023-05-01T01:55:28.806Z,2.20
2023-05-01T01:56:03.840Z,1.90
2023-05-01T01:56:38.051Z,1.60
2023-05-01T01:57:14.765Z,1.80
2023-05-01T01:57:47.525Z,1.90
2023-05-01T01:58:21.561Z,1.83
2023-05-01T01:58:57.094Z,1.70
2023-05-01T01:59:32.453Z,1.90
2023-05-01T02:00:09.085Z,1.60
2023-05-01T02:00:48.385Z,1.90
2023-05-01T02:01:23.435Z,2.37
2023-05-01T02:01:56.957Z,2.20
2023-05-01T02:02:32.847Z,1.80
2023-05-01T02:03:06.082Z,1.83
2023-05-01T02:03:39.381Z,2.20
2023-05-01T02:04:15.004Z,1.63
2023-05-01T02:04:50.620Z,1.80
2023-05-01T02:05:26.243Z,1.83
2023-05-01T02:06:00.163Z,1.73
2023-05-01T02:06:34.462Z,1.87
2023-05-01T02:07:10.131Z,1.60
2023-05-01T02:07:42.870Z,1.60
2023-05-01T02:08:15.524Z,1.93
2023-05-01T02:08:52.162Z,1.90
2023-05-01T02:09:26.253Z,1.80
2023-05-01T02:09:59.500Z,1.73
2023-05-01T02:10:36.140Z,2.10
2023-05-01T02:11:09.654Z,1.93
2023-05-01T02:11:42.550Z,1.80
2023-05-01T02:12:19.135Z,2.00
2023-05-01T02:12:52.408Z,1.93
2023-05-01T02:13:25.141Z,1.93
2023-05-01T02:14:00.644Z,2.10
2023-05-01T02:14:33.969Z,1.80
2023-05-01T02:15:10.174Z,2.03
2023-05-01T02:15:45.534Z,2.30
2023-05-01T02:16:18.472Z,1.90
2023-05-01T02:16:53.688Z,1.80
2023-05-01T02:17:28.361Z,2.13
2023-05-01T02:18:03.725Z,2.13
2023-05-01T02:18:39.424Z,2.00
2023-05-01T02:19:11.927Z,2.17
2023-05-01T02:19:45.294Z,2.30
2023-05-01T02:20:23.880Z,1.70
2023-05-01T02:20:57.645Z,1.87
2023-05-01T02:21:31.380Z,2.30
2023-05-01T02:22:07.076Z,1.87
2023-05-01T02:22:40.390Z,2.20
2023-05-01T02:23:13.611Z,2.17
2023-05-01T02:23:48.820Z,1.90
2023-05-01T02:24:22.911Z,2.27
2023-05-01T02:24:57.479Z,1.70
2023-05-01T02:25:34.530Z,2.07
2023-05-01T02:26:11.416Z,2.00
2023-05-01T02:26:44.608Z,2.00
2023-05-01T02:27:23.586Z,2.00
2023-05-01T02:27:57.348Z,1.93
2023-05-01T02:28:30.619Z,1.93
2023-05-01T02:29:07.696Z,2.00
2023-05-01T02:29:40.078Z,1.90
2023-05-01T02:30:13.182Z,1.97
2023-05-01T02:30:48.215Z,2.07
2023-05-01T02:31:20.754Z,1.93
2023-05-01T02:31:54.643Z,2.00
2023-05-01T02:32:28.705Z,1.90
2023-05-01T02:33:04.555Z,1.90
2023-05-01T02:33:37.681Z,2.10
2023-05-01T02:34:10.018Z,1.97
2023-05-01T02:34:45.096Z,2.33
2023-05-01T02:35:20.530Z,2.00
2023-05-01T02:35:53.697Z,1.83
2023-05-01T02:36:28.763Z,1.70
2023-05-01T02:37:01.127Z,2.30
2023-05-01T02:37:33.580Z,2.00
2023-05-01T02:38:11.340Z,1.53
2023-05-01T02:38:44.006Z,2.03
2023-05-01T02:39:16.463Z,1.70
2023-05-01T02:39:51.764Z,1.70
2023-05-01T02:40:24.425Z,2.27
2023-05-01T02:40:58.475Z,2.00
2023-05-01T02:41:31.981Z,1.80
2023-05-01T02:42:07.981Z,2.10
2023-05-01T02:42:40.437Z,1.90
2023-05-01T02:43:14.572Z,1.73
2023-05-01T02:43:51.397Z,1.97
2023-05-01T02:44:24.458Z,1.73
2023-05-01T02:45:03.189Z,2.00
2023-05-01T02:45:41.696Z,1.90
2023-05-01T02:46:15.985Z,2.13
2023-05-01T02:46:51.429Z,2.20
2023-05-01T02:47:24.469Z,1.90
2023-05-01T02:48:00.056Z,2.07
2023-05-01T02:48:37.890Z,1.90
2023-05-01T02:49:11.062Z,1.77
2023-05-01T02:49:44.184Z,2.17
2023-05-01T02:50:22.580Z,2.50
2023-05-01T02:50:56.090Z,2.60
2023-05-01T02:51:28.822Z,2.40
2023-05-01T02:52:04.614Z,2.20
2023-05-01T02:52:38.085Z,2.30
2023-05-01T02:53:32.915Z,2.13
2023-05-01T02:54:13.351Z,2.40
2023-05-01T02:54:46.100Z,2.77
2023-05-01T02:55:21.638Z,2.57
2023-05-01T02:55:54.016Z,2.40
2023-05-01T02:56:27.699Z,2.00
2023-05-01T02:57:03.367Z,2.13
2023-05-01T02:57:36.034Z,2.00
2023-05-01T02:58:08.450Z,2.07
2023-05-01T02:58:44.651Z,2.13
2023-05-01T02:59:17.514Z,2.07
2023-05-01T02:59:49.892Z,1.83
2023-05-01T03:00:25.493Z,2.07
2023-05-01T03:00:58.218Z,2.00
2023-05-01T03:01:30.773Z,1.83
2023-05-01T03:02:06.350Z,1.90
2023-05-01T03:02:38.825Z,1.90
2023-05-01T03:03:12.165Z,2.47
2023-05-01T03:03:47.312Z,1.73
2023-05-01T03:04:19.737Z,1.50
2023-05-01T03:04:52.447Z,1.80
2023-05-01T03:05:27.441Z,2.43
2023-05-01T03:06:02.444Z,1.80
2023-05-01T03:06:36.006Z,1.80
2023-05-01T03:07:08.554Z,2.00
2023-05-01T03:07:41.234Z,1.80
2023-05-01T03:08:16.196Z,1.90
2023-05-01T03:08:48.833Z,1.83
2023-05-01T03:09:21.346Z,2.03
2023-05-01T03:09:56.500Z,1.50
2023-05-01T03:10:29.074Z,1.90
2023-05-01T03:11:05.528Z,1.83
2023-05-01T03:11:40.895Z,1.83
2023-05-01T03:12:13.992Z,1.63
2023-05-01T03:12:47.074Z,1.60
2023-05-01T03:13:22.072Z,2.00
2023-05-01T03:13:54.429Z,2.10
2023-05-01T03:14:28.723Z,1.87
2023-05-01T03:15:03.864Z,1.67
2023-05-01T03:15:36.621Z,2.03
2023-05-01T03:16:11.717Z,1.90
2023-05-01T03:16:44.692Z,1.67
2023-05-01T03:17:17.079Z,1.97
2023-05-01T03:17:52.118Z,1.80
2023-05-01T03:18:24.482Z,1.80
2023-05-01T03:18:56.852Z,1.80
2023-05-01T03:19:31.893Z,1.77
2023-05-01T03:20:06.439Z,1.70
2023-05-01T03:20:41.740Z,2.00
2023-05-01T03:21:17.060Z,1.90
2023-05-01T03:21:49.402Z,1.67
2023-05-01T03:22:21.998Z,1.60
2023-05-01T03:22:56.998Z,1.83
2023-05-01T03:23:29.360Z,1.80
2023-05-01T03:24:01.711Z,1.77
2023-05-01T03:24:36.668Z,1.67
2023-05-01T03:25:10.270Z,1.80
2023-05-01T03:25:44.731Z,1.70
2023-05-01T03:26:19.882Z,1.90
2023-05-01T03:26:52.229Z,2.07
2023-05-01T03:27:24.664Z,1.93
2023-05-01T03:27:59.795Z,1.67
2023-05-01T03:28:32.695Z,1.87
2023-05-01T03:29:05.042Z,1.80
2023-05-01T03:29:39.992Z,2.10
2023-05-01T03:30:13.283Z,1.80
2023-05-01T03:30:47.295Z,1.90
2023-05-01T03:31:22.835Z,1.80
2023-05-01T03:31:55.334Z,2.07
2023-05-01T03:32:29.579Z,2.00
2023-05-01T03:33:05.168Z,1.70
2023-05-01T03:33:38.822Z,1.93
2023-05-01T03:34:11.422Z,2.00
2023-05-01T03:34:47.047Z,1.80
2023-05-01T03:35:20.934Z,2.00
2023-05-01T03:36:04.250Z,1.70
2023-05-01T03:36:40.714Z,1.90
2023-05-01T03:37:13.153Z,1.50
2023-05-01T03:37:45.705Z,1.70
2023-05-01T03:38:28.511Z,2.27
2023-05-01T03:39:16.173Z,1.93
2023-05-01T03:40:19.168Z,1.73
2023-05-01T03:41:09.971Z,1.80
2023-05-01T03:41:44.961Z,1.83
2023-05-01T03:42:28.717Z,1.50
2023-05-01T03:43:06.827Z,1.90
2023-05-01T03:43:41.774Z,1.73
2023-05-01T03:44:23.002Z,2.03
2023-05-01T03:44:55.409Z,1.80
2023-05-01T03:45:31.292Z,1.70
2023-05-01T03:46:04.009Z,1.90
2023-05-01T03:46:37.149Z,1.90
2023-05-01T03:47:11.625Z,1.90
2023-05-01T03:47:49.573Z,1.93
2023-05-01T03:48:22.968Z,1.47
2023-05-01T03:48:55.474Z,1.83
2023-05-01T03:49:30.551Z,1.77
2023-05-01T03:50:02.954Z,1.90
2023-05-01T03:50:36.919Z,1.63
2023-05-01T03:51:17.357Z,1.63
2023-05-01T03:51:50.427Z,1.70
2023-05-01T03:52:23.823Z,1.67
2023-05-01T03:53:00.391Z,2.13
2023-05-01T03:53:33.236Z,1.67
2023-05-01T03:54:12.026Z,1.70
2023-05-01T03:55:02.843Z,2.00
2023-05-01T03:55:43.614Z,1.87
2023-05-01T03:56:18.145Z,2.10
2023-05-01T03:56:50.593Z,2.00
2023-05-01T03:57:27.208Z,1.83
2023-05-01T03:57:59.747Z,1.73
2023-05-01T03:58:32.482Z,1.80
2023-05-01T03:59:07.740Z,1.67
2023-05-01T03:59:40.093Z,1.60
2023-05-01T04:00:14.425Z,1.80
2023-05-01T04:00:53.295Z,1.73
2023-05-01T04:01:26.599Z,2.10
2023-05-01T04:01:59.216Z,1.50
2023-05-01T04:02:33.997Z,1.77
2023-05-01T04:03:09.206Z,1.83
2023-05-01T04:03:44.202Z,1.80
2023-05-01T04:04:16.647Z,2.27
2023-05-01T04:04:56.406Z,1.97
2023-05-01T04:05:29.457Z,1.73
2023-05-01T04:06:06.571Z,1.80
2023-05-01T04:06:44.536Z,1.90
2023-05-01T04:07:17.035Z,1.73
2023-05-01T04:07:51.943Z,1.80
2023-05-01T04:08:27.140Z,1.50
2023-05-01T04:08:59.511Z,1.70
2023-05-01T04:09:31.923Z,1.77
2023-05-01T04:10:08.310Z,1.83
2023-05-01T04:10:40.762Z,1.67
2023-05-01T04:11:13.183Z,2.00
2023-05-01T04:11:48.647Z,1.80
2023-05-01T04:12:22.146Z,2.03
2023-05-01T04:12:54.496Z,1.80
2023-05-01T04:13:29.612Z,2.20
2023-05-01T04:14:02.231Z,1.60
2023-05-01T04:14:34.649Z,1.60
2023-05-01T04:15:12.775Z,1.73
2023-05-01T04:15:46.966Z,1.77
2023-05-01T04:16:19.684Z,1.83
2023-05-01T04:16:55.451Z,1.50
2023-05-01T04:17:28.666Z,2.00
2023-05-01T04:18:01.888Z,1.80
2023-05-01T04:18:34.376Z,1.60
2023-05-01T04:19:09.464Z,1.73
2023-05-01T04:19:48.110Z,1.90
2023-05-01T04:20:23.357Z,1.80
2023-05-01T04:20:55.763Z,1.57
2023-05-01T04:21:28.137Z,1.70
2023-05-01T04:22:05.835Z,1.70
2023-05-01T04:22:39.966Z,1.60
2023-05-01T04:23:12.965Z,1.70
2023-05-01T04:23:47.913Z,2.10
2023-05-01T04:24:20.245Z,2.00
2023-05-01T04:24:53.150Z,1.80
2023-05-01T04:25:28.339Z,1.93
2023-05-01T04:26:06.910Z,2.10
2023-05-01T04:26:39.355Z,1.50
2023-05-01T04:27:15.059Z,1.83
2023-05-01T04:27:47.441Z,1.90
2023-05-01T04:28:21.934Z,1.77
2023-05-01T04:28:56.931Z,1.70
2023-05-01T04:29:31.442Z,2.13
2023-05-01T04:30:04.673Z,1.77
2023-05-01T04:30:40.364Z,1.70
2023-05-01T04:31:13.376Z,1.70
2023-05-01T04:31:45.820Z,1.60
2023-05-01T04:32:20.873Z,1.80
2023-05-01T04:32:53.425Z,1.90
2023-05-01T04:33:25.966Z,2.03
2023-05-01T04:34:01.543Z,2.03
2023-05-01T04:34:33.954Z,1.80
2023-05-01T04:35:07.547Z,1.97
2023-05-01T04:35:43.901Z,1.80
2023-05-01T04:36:16.331Z,1.67
2023-05-01T04:36:52.050Z,1.83
2023-05-01T04:37:29.946Z,1.90
2023-05-01T04:38:02.351Z,1.93
2023-05-01T04:38:37.573Z,1.73
2023-05-01T04:39:12.707Z,1.73
2023-05-01T04:39:45.124Z,1.70
2023-05-01T04:40:18.028Z,1.70
2023-05-01T04:40:53.476Z,1.80
2023-05-01T04:41:25.878Z,1.60
2023-05-01T04:41:58.418Z,1.90
2023-05-01T04:42:34.205Z,1.80
2023-05-01T04:43:06.644Z,1.93
2023-05-01T04:43:39.188Z,1.57
2023-05-01T04:44:15.391Z,1.50
2023-05-01T04:44:47.983Z,1.80
2023-05-01T04:45:20.947Z,1.80
2023-05-01T04:45:57.151Z,1.50
2023-05-01T04:46:29.666Z,1.83
2023-05-01T04:47:02.852Z,1.93
2023-05-01T04:47:38.041Z,2.00
2023-05-01T04:48:10.697Z,2.10
2023-05-01T04:48:43.050Z,1.70
2023-05-01T04:49:18.362Z,1.90
2023-05-01T04:49:50.876Z,1.90
2023-05-01T04:50:23.461Z,1.90
2023-05-01T04:50:59.411Z,1.83
2023-05-01T04:51:35.255Z,1.50
2023-05-01T04:52:08.142Z,1.77
2023-05-01T04:53:01.154Z,1.67
2023-05-01T04:53:33.938Z,1.93
2023-05-01T04:54:07.828Z,1.63
2023-05-01T04:54:45.124Z,1.60
2023-05-01T04:55:18.372Z,1.50
2023-05-01T04:56:13.585Z,1.80
2023-05-01T04:56:46.534Z,1.57
2023-05-01T04:57:19.037Z,1.83
2023-05-01T04:57:54.091Z,2.03
2023-05-01T04:58:26.652Z,2.20
2023-05-01T04:59:04.374Z,1.80
2023-05-01T04:59:40.202Z,1.70
2023-05-01T05:00:13.694Z,1.90
2023-05-01T05:00:55.459Z,1.73
2023-05-01T05:01:32.105Z,1.53
2023-05-01T05:02:04.729Z,1.80
2023-05-01T05:02:37.408Z,1.80
2023-05-01T05:03:12.551Z,2.43
2023-05-01T05:03:47.196Z,3.27
2023-05-01T05:04:24.841Z,4.60
2023-05-01T05:04:57.857Z,4.10
2023-05-01T05:05:30.710Z,3.30
2023-05-01T05:06:06.332Z,2.90
2023-05-01T05:06:38.939Z,2.83
2023-05-01T05:07:16.059Z,4.00
2023-05-01T05:08:16.552Z,3.27
2023-05-01T05:08:57.475Z,3.50
2023-05-01T05:09:29.857Z,2.77
2023-05-01T05:10:04.847Z,3.10
2023-05-01T05:10:37.420Z,3.43
2023-05-01T05:11:34.217Z,3.20
2023-05-01T05:12:15.110Z,2.23
2023-05-01T05:12:47.528Z,2.60
2023-05-01T05:13:22.457Z,2.23
2023-05-01T05:14:02.743Z,1.53
2023-05-01T05:14:37.797Z,1.97
2023-05-01T05:15:11.568Z,2.10
2023-05-01T05:15:43.934Z,1.97
2023-05-01T05:16:20.684Z,1.80
2023-05-01T05:16:53.302Z,2.10
2023-05-01T05:17:25.860Z,2.13
2023-05-01T05:18:00.970Z,1.90
2023-05-01T05:18:35.283Z,1.90
2023-05-01T05:19:08.163Z,1.40
2023-05-01T05:19:46.573Z,2.00
2023-05-01T05:20:18.946Z,2.00
2023-05-01T05:20:51.337Z,1.77
2023-05-01T05:21:26.749Z,1.70
2023-05-01T05:22:02.609Z,1.87
2023-05-01T05:22:37.864Z,1.67
2023-05-01T05:23:31.558Z,1.70
2023-05-01T05:24:04.359Z,1.90
2023-05-01T05:24:36.755Z,1.73
2023-05-01T05:25:12.858Z,1.60
2023-05-01T05:25:45.250Z,1.63
2023-05-01T05:26:18.151Z,1.70
2023-05-01T05:26:53.195Z,1.40
2023-05-01T05:27:26.376Z,1.60
2023-05-01T05:27:59.951Z,2.00
2023-05-01T05:28:34.910Z,1.93
2023-05-01T05:29:07.759Z,1.80
2023-05-01T05:29:40.249Z,1.80
2023-05-01T05:30:16.658Z,1.70
2023-05-01T05:30:51.337Z,1.87
2023-05-01T05:31:26.056Z,1.67
2023-05-01T05:32:01.480Z,1.47
2023-05-01T05:32:34.401Z,1.90
2023-05-01T05:33:08.982Z,1.87
2023-05-01T05:33:44.930Z,1.90
2023-05-01T05:34:19.851Z,1.43
2023-05-01T05:34:52.219Z,1.53
2023-05-01T05:35:27.744Z,1.83
2023-05-01T05:36:01.557Z,1.50
2023-05-01T05:36:39.510Z,1.60
2023-05-01T05:37:15.623Z,1.80
2023-05-01T05:37:55.325Z,1.60
2023-05-01T05:38:31.567Z,2.13
2023-05-01T05:39:07.403Z,1.83
2023-05-01T05:39:39.884Z,2.10
2023-05-01T05:40:13.272Z,1.60
2023-05-01T05:40:59.567Z,1.60
2023-05-01T05:41:31.997Z,1.87
2023-05-01T05:42:07.055Z,1.67
2023-05-01T05:42:42.079Z,1.83
2023-05-01T05:43:14.443Z,1.50
2023-05-01T05:43:49.435Z,1.73
2023-05-01T05:44:21.855Z,1.77
2023-05-01T05:44:54.396Z,2.03
2023-05-01T05:45:29.499Z,1.73
2023-05-01T05:46:02.425Z,1.70
2023-05-01T05:46:37.625Z,1.73
2023-05-01T05:47:15.847Z,1.80
2023-05-01T05:47:48.271Z,1.60
2023-05-01T05:48:21.144Z,2.27
2023-05-01T05:48:56.228Z,1.63
2023-05-01T05:49:28.837Z,1.80
2023-05-01T05:50:01.226Z,2.00
2023-05-01T05:50:36.306Z,1.87
2023-05-01T05:51:08.748Z,2.00
2023-05-01T05:51:43.757Z,2.00
2023-05-01T05:52:16.833Z,1.90
2023-05-01T05:52:49.493Z,1.67
2023-05-01T05:53:26.006Z,1.53
2023-05-01T05:54:01.683Z,1.87
2023-05-01T05:54:41.126Z,1.90
2023-05-01T05:55:13.948Z,1.67
2023-05-01T05:55:52.415Z,1.50
2023-05-01T05:56:27.422Z,1.50
2023-05-01T05:56:59.793Z,1.73
2023-05-01T05:57:32.779Z,1.60
2023-05-01T05:58:07.859Z,1.67
2023-05-01T05:58:42.274Z,1.80
2023-05-01T05:59:16.689Z,1.93
2023-05-01T05:59:52.603Z,1.53
2023-05-01T06:00:28.408Z,1.77
2023-05-01T06:01:05.089Z,1.93
2023-05-01T06:01:37.999Z,1.90
2023-05-01T06:02:10.393Z,1.70
2023-05-01T06:02:45.489Z,1.70
2023-05-01T06:03:19.776Z,1.77
2023-05-01T06:03:52.600Z,1.60
2023-05-01T06:04:27.692Z,1.70
2023-05-01T06:05:00.239Z,1.90
2023-05-01T06:05:34.543Z,1.70
2023-05-01T06:06:09.962Z,1.73
2023-05-01T06:06:42.883Z,1.50
2023-05-01T06:07:15.451Z,1.80
2023-05-01T06:07:50.445Z,1.60
2023-05-01T06:08:23.378Z,1.80
2023-05-01T06:08:55.731Z,2.17
2023-05-01T06:09:33.616Z,2.03
2023-05-01T06:10:07.753Z,1.80
2023-05-01T06:10:41.983Z,1.80
2023-05-01T06:11:17.870Z,2.00
2023-05-01T06:11:50.248Z,1.60
2023-05-01T06:12:22.920Z,2.00
2023-05-01T06:12:59.665Z,1.63
2023-05-01T06:13:48.180Z,2.10
2023-05-01T06:14:23.311Z,1.60
2023-05-01T06:14:56.118Z,1.83
2023-05-01T06:15:28.489Z,1.97
2023-05-01T06:16:04.687Z,1.90
2023-05-01T06:16:37.156Z,1.70
2023-05-01T06:17:09.638Z,2.13
2023-05-01T06:17:45.429Z,1.60
2023-05-01T06:18:18.907Z,1.80
2023-05-01T06:18:53.927Z,1.90
2023-05-01T06:19:26.448Z,1.80
2023-05-01T06:20:09.171Z,1.70
2023-05-01T06:20:44.274Z,1.77
2023-05-01T06:21:16.638Z,1.73
2023-05-01T06:21:49.524Z,1.60
2023-05-01T06:22:24.519Z,1.60
2023-05-01T06:23:19.387Z,1.67
2023-05-01T06:24:27.654Z,1.97
2023-05-01T06:25:07.200Z,1.80
2023-05-01T06:25:40.822Z,2.13
2023-05-01T06:26:16.099Z,2.03
2023-05-01T06:26:49.491Z,1.90
2023-05-01T06:27:24.534Z,1.50
2023-05-01T06:27:57.261Z,2.00
2023-05-01T06:28:30.165Z,2.10
2023-05-01T06:29:05.129Z,2.00
2023-05-01T06:29:37.762Z,1.80
2023-05-01T06:30:11.372Z,2.03
2023-05-01T06:30:49.117Z,1.60
2023-05-01T06:31:23.639Z,1.87
2023-05-01T06:32:02.446Z,1.80
2023-05-01T06:32:34.870Z,2.10
2023-05-01T06:33:07.343Z,1.80
2023-05-01T06:33:43.258Z,2.00
2023-05-01T06:34:31.900Z,1.80
2023-05-01T06:35:08.379Z,2.30
2023-05-01T06:35:40.921Z,2.10
2023-05-01T06:36:13.350Z,1.77
2023-05-01T06:36:48.332Z,1.90
2023-05-01T06:37:21.266Z,1.60
2023-05-01T06:37:53.605Z,1.67
2023-05-01T06:38:29.048Z,1.90
2023-05-01T06:39:02.146Z,1.60
2023-05-01T06:39:38.940Z,1.73
2023-05-01T06:40:14.053Z,1.70
2023-05-01T06:40:49.388Z,1.73
2023-05-01T06:41:25.759Z,1.97
2023-05-01T06:41:58.162Z,1.87
2023-05-01T06:42:40.431Z,1.90
2023-05-01T06:43:15.367Z,1.87
2023-05-01T06:43:47.952Z,2.07
2023-05-01T06:44:22.276Z,1.80
2023-05-01T06:44:57.205Z,1.73
2023-05-01T06:45:29.560Z,1.80
2023-05-01T06:46:04.508Z,1.87
2023-05-01T06:46:37.000Z,1.70
2023-05-01T06:47:09.501Z,1.80
2023-05-01T06:47:44.584Z,1.90
2023-05-01T06:48:17.024Z,1.80
2023-05-01T06:48:49.362Z,2.00
2023-05-01T06:49:24.342Z,2.03
2023-05-01T06:49:57.174Z,2.10
2023-05-01T06:50:29.890Z,2.10
2023-05-01T06:51:04.829Z,1.93
2023-05-01T06:51:37.672Z,1.87
2023-05-01T06:52:10.230Z,2.20
2023-05-01T06:52:45.313Z,2.10
2023-05-01T06:53:17.665Z,2.00
2023-05-01T06:53:52.619Z,2.07
2023-05-01T06:54:25.098Z,2.00
2023-05-01T06:54:57.462Z,1.83
2023-05-01T06:55:36.342Z,1.97
2023-05-01T06:56:08.715Z,2.33
2023-05-01T06:56:41.138Z,2.10
2023-05-01T06:57:16.058Z,1.90
2023-05-01T06:57:48.457Z,1.97
2023-05-01T06:58:24.084Z,2.07
2023-05-01T06:58:59.440Z,2.00
2023-05-01T06:59:31.839Z,2.00
2023-05-01T07:00:04.804Z,2.13
2023-05-01T07:00:39.773Z,2.27
2023-05-01T07:01:12.668Z,2.00
2023-05-01T07:01:47.765Z,1.87
2023-05-01T07:02:20.233Z,1.93
2023-05-01T07:02:55.438Z,2.17
2023-05-01T07:03:27.923Z,1.90
2023-05-01T07:04:00.333Z,1.70
2023-05-01T07:04:35.331Z,2.07
2023-05-01T07:05:08.022Z,1.90
2023-05-01T07:05:40.594Z,2.33
2023-05-01T07:06:15.613Z,2.40
2023-05-01T07:06:47.969Z,2.00
2023-05-01T07:07:20.450Z,2.00
2023-05-01T07:08:01.092Z,2.10
2023-05-01T07:08:34.075Z,1.93
2023-05-01T07:09:08.997Z,2.13
2023-05-01T07:09:41.635Z,2.10
2023-05-01T07:10:13.993Z,2.00
2023-05-01T07:10:52.356Z,1.80
2023-05-01T07:11:24.708Z,1.97
2023-05-01T07:11:57.267Z,1.83
2023-05-01T07:12:32.642Z,1.90
2023-05-01T07:13:04.957Z,1.90
2023-05-01T07:13:37.724Z,2.17
2023-05-01T07:14:12.682Z,2.03
2023-05-01T07:14:45.043Z,2.10
2023-05-01T07:15:17.380Z,2.10
2023-05-01T07:15:54.372Z,1.77
2023-05-01T07:16:27.086Z,1.67
2023-05-01T07:16:59.505Z,1.90
2023-05-01T07:17:34.496Z,2.27
2023-05-01T07:18:06.871Z,2.20
2023-05-01T07:18:39.467Z,1.70
2023-05-01T07:19:14.706Z,2.00
2023-05-01T07:19:47.020Z,2.13
2023-05-01T07:20:19.389Z,2.50
2023-05-01T07:20:54.357Z,1.67
2023-05-01T07:21:26.730Z,2.03
2023-05-01T07:21:59.062Z,2.20
2023-05-01T07:22:33.996Z,1.83
2023-05-01T07:23:07.398Z,2.13
2023-05-01T07:23:40.158Z,2.20
2023-05-01T07:24:15.296Z,2.20
2023-05-01T07:24:47.647Z,1.87
2023-05-01T07:25:20.546Z,2.23
2023-05-01T07:25:58.372Z,2.37
2023-05-01T07:26:30.701Z,2.20
2023-05-01T07:27:03.101Z,2.10
2023-05-01T07:27:38.101Z,2.30
2023-05-01T07:28:10.449Z,2.00
2023-05-01T07:28:42.858Z,2.10
2023-05-01T07:29:18.202Z,2.13
2023-05-01T07:29:51.074Z,2.03
2023-05-01T07:30:26.196Z,1.63
2023-05-01T07:30:58.927Z,2.30
2023-05-01T07:31:34.000Z,1.90
2023-05-01T07:32:07.212Z,1.83
2023-05-01T07:32:39.626Z,1.83
2023-05-01T07:33:14.917Z,2.07
2023-05-01T07:33:47.805Z,2.00
2023-05-01T07:34:20.148Z,2.47
2023-05-01T07:34:55.202Z,2.50
2023-05-01T07:35:27.686Z,2.10
2023-05-01T07:36:00.096Z,1.80
2023-05-01T07:36:35.018Z,2.30
2023-05-01T07:37:07.355Z,2.10
2023-05-01T07:37:39.743Z,2.30
2023-05-01T07:38:15.171Z,2.00
2023-05-01T07:38:48.109Z,2.20
2023-05-01T07:39:20.465Z,1.90
2023-05-01T07:39:55.556Z,2.20
2023-05-01T07:40:28.169Z,1.97
2023-05-01T07:41:03.127Z,2.33
2023-05-01T07:41:38.054Z,2.40
2023-05-01T07:42:10.383Z,2.07
2023-05-01T07:42:42.750Z,2.17
2023-05-01T07:43:17.697Z,2.33
2023-05-01T07:43:50.077Z,2.27
2023-05-01T07:44:25.014Z,2.33
2023-05-01T07:44:57.346Z,2.77
2023-05-01T07:45:29.811Z,2.07
2023-05-01T07:46:05.719Z,2.10
2023-05-01T07:46:38.753Z,1.60
2023-05-01T07:47:13.794Z,2.17
2023-05-01T07:47:46.415Z,2.13
2023-05-01T07:48:18.870Z,2.23
2023-05-01T07:48:53.846Z,2.30